Time;durP1;ratioP1;P1;durP2;ratioP2;P2;SDS_P1;SDS_P2;PMS_P1;PMS_P2;Temp;Humidity;BMP_temperature;BMP_pressure;BME280_temperature;BME280_humidity;BME280_pressure;Samples;Min_cycle;Max_cycle;Signal;HPM_P1;HPM_P2
2022/07/17 00:00:23;;;;;;;2.72;1.48;;;;;;;14.28;100.00;101864.72;5053792;28;20444;-58
2022/07/17 00:02:49;;;;;;;1.30;0.98;;;;;;;14.25;100.00;101878.41;5062081;28;20119;-58
2022/07/17 00:05:14;;;;;;;2.28;1.23;;;;;;;14.17;100.00;101879.31;5054380;28;20036;-59
2022/07/17 00:07:40;;;;;;;0.98;0.98;;;;;;;14.07;100.00;101879.59;5051972;28;20535;-59
2022/07/17 00:10:06;;;;;;;1.15;1.08;;;;;;;13.98;100.00;101882.50;5051149;28;20082;-56
2022/07/17 00:12:32;;;;;;;1.30;0.88;;;;;;;13.88;100.00;101886.22;5061680;28;20519;-56
2022/07/17 00:14:57;;;;;;;2.95;2.03;;;;;;;13.86;100.00;101892.75;5049970;28;20123;-56
2022/07/17 00:17:22;;;;;;;6.35;1.98;;;;;;;13.87;100.00;101894.41;5052979;28;20032;-58
2022/07/17 00:19:48;;;;;;;2.58;0.98;;;;;;;13.89;100.00;101893.22;5056825;28;20485;-54
2022/07/17 00:22:13;;;;;;;2.42;1.30;;;;;;;13.88;100.00;101888.06;5062927;28;20044;-58
2022/07/17 00:24:39;;;;;;;2.33;0.70;;;;;;;13.84;100.00;101894.78;5055264;28;20067;-55
2022/07/17 00:27:04;;;;;;;1.63;1.20;;;;;;;13.79;100.00;101886.50;5056670;28;20136;-58
2022/07/17 00:29:29;;;;;;;1.60;1.45;;;;;;;13.69;100.00;101887.53;5048545;28;20028;-56
2022/07/17 00:31:55;;;;;;;2.30;2.10;;;;;;;13.61;100.00;101889.44;5054983;28;20024;-57
2022/07/17 00:34:21;;;;;;;5.35;1.42;;;;;;;13.55;100.00;101893.63;5051741;28;20382;-58
2022/07/17 00:36:46;;;;;;;1.52;0.90;;;;;;;13.51;100.00;101889.66;5040346;28;20026;-57
2022/07/17 00:39:12;;;;;;;0.70;0.70;;;;;;;13.36;100.00;101891.41;5051274;28;20112;-58
2022/07/17 00:41:38;;;;;;;1.38;1.23;;;;;;;13.19;100.00;101901.28;5051276;28;20025;-58
2022/07/17 00:44:09;;;;;;;1.45;1.10;;;;;;;13.11;100.00;101894.16;5058762;28;20074;-55
2022/07/17 00:46:35;;;;;;;2.10;1.48;;;;;;;13.07;100.00;101893.69;5053691;28;20097;-57
2022/07/17 00:49:02;;;;;;;2.60;1.10;;;;;;;13.02;100.00;101889.88;5061196;28;20036;-58
2022/07/17 00:51:27;;;;;;;5.18;1.70;;;;;;;12.99;100.00;101891.06;5051884;28;20525;-57
2022/07/17 00:53:55;;;;;;;5.43;1.35;;;;;;;12.98;100.00;101891.22;5058356;28;20070;-56
2022/07/17 00:56:22;;;;;;;1.98;1.42;;;;;;;13.00;100.00;101892.69;5051389;28;20025;-58
2022/07/17 00:58:49;;;;;;;2.88;1.30;;;;;;;13.02;100.00;101889.88;5056424;28;20353;-58
2022/07/17 01:01:14;;;;;;;1.90;1.15;;;;;;;12.96;100.00;101896.72;5054728;28;20063;-59
2022/07/17 01:03:40;;;;;;;1.33;1.23;;;;;;;12.85;100.00;101895.25;5062772;28;20068;-54
2022/07/17 01:06:06;;;;;;;11.90;1.58;;;;;;;12.81;100.00;101891.28;5062328;28;20050;-58
2022/07/17 01:08:32;;;;;;;1.30;0.88;;;;;;;12.70;100.00;101889.00;5057643;28;20038;-59
2022/07/17 01:10:58;;;;;;;2.80;1.33;;;;;;;12.60;100.00;101897.16;5051721;28;20048;-58
2022/07/17 01:13:23;;;;;;;1.63;1.38;;;;;;;12.54;100.00;101902.31;5067901;28;20494;-58
2022/07/17 01:15:49;;;;;;;1.58;1.48;;;;;;;12.52;100.00;101899.00;5057709;28;20062;-57
2022/07/17 01:18:15;;;;;;;2.58;1.27;;;;;;;12.49;100.00;101899.34;5048796;28;20032;-58
2022/07/17 01:20:44;;;;;;;1.27;1.10;;;;;;;12.45;100.00;101896.19;5060779;28;20089;-58
2022/07/17 01:23:10;;;;;;;1.02;0.93;;;;;;;12.45;100.00;101890.88;5055207;28;20037;-57
2022/07/17 01:25:35;;;;;;;1.77;1.65;;;;;;;12.52;100.00;101889.19;5063304;28;20021;-57
2022/07/17 01:28:01;;;;;;;1.55;1.45;;;;;;;12.49;100.00;101886.03;5052621;28;20027;-57
2022/07/17 01:30:27;;;;;;;3.20;1.05;;;;;;;12.47;100.00;101878.25;5060543;28;20350;-58
2022/07/17 01:32:53;;;;;;;2.28;1.35;;;;;;;12.46;100.00;101889.03;5056297;28;20051;-57
2022/07/17 01:35:18;;;;;;;4.18;1.80;;;;;;;12.34;100.00;101886.75;5061190;28;20048;-55
2022/07/17 01:37:44;;;;;;;2.47;1.27;;;;;;;12.32;100.00;101894.06;5054362;28;20044;-58
2022/07/17 01:40:12;;;;;;;0.73;0.73;;;;;;;12.39;100.00;101889.72;5063924;28;20089;-56
2022/07/17 01:42:39;;;;;;;7.18;2.60;;;;;;;12.35;100.00;101883.06;5058439;28;20039;-58
2022/07/17 01:45:05;;;;;;;1.80;1.30;;;;;;;12.24;100.00;101880.75;5069188;28;20049;-58
2022/07/17 01:47:31;;;;;;;2.33;1.40;;;;;;;12.15;100.00;101892.38;5058334;28;20039;-54
2022/07/17 01:49:57;;;;;;;1.85;1.08;;;;;;;12.13;100.00;101884.59;5057954;28;20051;-56
2022/07/17 01:52:24;;;;;;;3.50;1.77;;;;;;;12.21;100.00;101873.13;5058323;28;20029;-54
2022/07/17 01:54:50;;;;;;;1.42;1.10;;;;;;;12.26;100.00;101876.09;5055330;28;20033;-58
2022/07/17 01:57:15;;;;;;;5.10;1.15;;;;;;;12.27;100.00;101882.25;5054336;28;20055;-58
2022/07/17 01:59:41;;;;;;;1.60;1.50;;;;;;;12.23;100.00;101887.06;5059065;28;20169;-56
2022/07/17 02:02:08;;;;;;;5.18;1.33;;;;;;;12.21;100.00;101883.75;5064845;28;20074;-54
2022/07/17 02:04:35;;;;;;;1.92;1.10;;;;;;;12.26;100.00;101892.03;5047417;28;20033;-57
2022/07/17 02:07:01;;;;;;;3.05;1.60;;;;;;;12.31;100.00;101902.19;5057430;28;20025;-53
2022/07/17 02:09:26;;;;;;;1.83;1.50;;;;;;;12.35;100.00;101888.38;5049094;28;20047;-57
2022/07/17 02:11:52;;;;;;;1.27;1.17;;;;;;;12.37;100.00;101891.72;5059055;28;20041;-52
2022/07/17 02:14:18;;;;;;;1.30;1.20;;;;;;;12.37;100.00;101890.88;5046142;28;20040;-58
2022/07/17 02:16:43;;;;;;;2.22;2.08;;;;;;;12.31;100.00;101900.34;5053965;28;20051;-55
2022/07/17 02:19:10;;;;;;;2.00;1.58;;;;;;;12.25;100.00;101895.72;5049808;28;20020;-58
2022/07/17 02:21:35;;;;;;;4.43;1.50;;;;;;;12.23;100.00;101898.53;5053997;28;20032;-57
2022/07/17 02:24:00;;;;;;;2.10;1.13;;;;;;;12.20;100.00;101892.72;5054949;28;20426;-58
2022/07/17 02:26:26;;;;;;;1.08;0.77;;;;;;;12.21;100.00;101891.75;5055294;28;20032;-56
2022/07/17 02:28:51;;;;;;;1.02;0.93;;;;;;;12.20;100.00;101890.88;5061273;28;20221;-57
2022/07/17 02:31:16;;;;;;;2.17;1.30;;;;;;;12.20;100.00;101880.25;5057385;28;20036;-55
2022/07/17 02:33:42;;;;;;;3.38;1.55;;;;;;;12.22;100.00;101888.06;5057880;28;20036;-58
2022/07/17 02:36:07;;;;;;;1.33;0.52;;;;;;;12.22;100.00;101885.41;5052658;28;20082;-56
2022/07/17 02:38:33;;;;;;;2.25;0.98;;;;;;;12.25;100.00;101884.25;5065278;28;20036;-54
2022/07/17 02:40:59;;;;;;;6.82;1.88;;;;;;;12.25;100.00;101890.41;5052159;28;20035;-57
2022/07/17 02:43:24;;;;;;;1.05;1.00;;;;;;;12.15;100.00;101889.72;5054842;28;20056;-58
2022/07/17 02:45:49;;;;;;;3.00;1.38;;;;;;;12.04;100.00;101892.75;5063044;28;20052;-58
2022/07/17 02:48:15;;;;;;;2.10;1.10;;;;;;;11.90;100.00;101895.06;5059968;28;20472;-58
2022/07/17 02:50:40;;;;;;;1.30;1.15;;;;;;;11.86;100.00;101891.06;5062884;28;20024;-55
2022/07/17 02:53:06;;;;;;;1.55;1.27;;;;;;;11.87;100.00;101899.84;5045153;28;20041;-54
2022/07/17 02:55:31;;;;;;;2.67;0.80;;;;;;;11.85;100.00;101897.34;5058241;28;20028;-54
2022/07/17 02:57:56;;;;;;;1.50;0.80;;;;;;;11.85;100.00;101907.13;5050308;28;20033;-58
2022/07/17 03:00:22;;;;;;;1.40;0.90;;;;;;;11.81;100.00;101911.13;5043549;28;20068;-57
2022/07/17 03:02:48;;;;;;;2.40;1.05;;;;;;;11.80;100.00;101910.31;5057568;28;20116;-53
2022/07/17 03:05:15;;;;;;;1.40;1.02;;;;;;;11.84;100.00;101910.78;5060303;28;20501;-55
2022/07/17 03:07:41;;;;;;;0.70;0.60;;;;;;;11.87;100.00;101911.31;5052310;28;20331;-53
2022/07/17 03:10:07;;;;;;;1.23;1.10;;;;;;;11.89;100.00;101914.66;5051239;28;20035;-56
2022/07/17 03:12:33;;;;;;;2.47;1.58;;;;;;;11.90;100.00;101916.31;5050628;28;20041;-55
2022/07/17 03:14:58;;;;;;;1.45;1.27;;;;;;;11.89;100.00;101922.63;5060195;28;20541;-55
2022/07/17 03:17:24;;;;;;;1.40;1.08;;;;;;;11.86;100.00;101917.63;5061297;28;20044;-57
2022/07/17 03:19:50;;;;;;;1.75;0.98;;;;;;;11.87;100.00;101910.50;5050326;28;20037;-58
2022/07/17 03:22:15;;;;;;;1.10;1.00;;;;;;;11.88;100.00;101912.16;5052013;28;20025;-58
2022/07/17 03:24:41;;;;;;;1.95;0.90;;;;;;;11.88;100.00;101910.34;5042858;28;20037;-58
2022/07/17 03:27:06;;;;;;;1.65;1.10;;;;;;;11.87;100.00;101916.63;5051624;28;20447;-56
2022/07/17 03:29:32;;;;;;;6.78;1.80;;;;;;;11.91;100.00;101917.16;5051321;28;20054;-55
2022/07/17 03:31:57;;;;;;;4.88;0.60;;;;;;;11.89;100.00;101924.44;5054173;28;20492;-58
2022/07/17 03:34:22;;;;;;;1.45;1.13;;;;;;;11.89;100.00;101917.31;5053923;28;20111;-57
2022/07/17 03:36:48;;;;;;;2.13;1.45;;;;;;;11.93;100.00;101916.00;5056668;28;20114;-57
2022/07/17 03:39:14;;;;;;;3.35;1.23;;;;;;;11.95;100.00;101914.00;5060363;28;20032;-57
2022/07/17 03:41:39;;;;;;;4.20;1.13;;;;;;;11.99;100.00;101920.63;5062006;28;20040;-54
2022/07/17 03:44:04;;;;;;;3.67;1.35;;;;;;;11.97;100.00;101916.47;5059299;28;20036;-58
2022/07/17 03:46:30;;;;;;;0.80;0.70;;;;;;;11.89;100.00;101911.97;5061976;28;20040;-54
2022/07/17 03:48:55;;;;;;;1.48;1.20;;;;;;;11.84;100.00;101905.47;5049528;28;20043;-55
2022/07/17 03:51:20;;;;;;;0.85;0.85;;;;;;;11.79;100.00;101900.66;5049326;28;20029;-57
2022/07/17 03:53:46;;;;;;;4.03;1.95;;;;;;;11.77;100.00;101899.97;5057094;28;20132;-51
2022/07/17 03:56:11;;;;;;;1.80;0.85;;;;;;;11.73;100.00;101901.31;5060870;28;20029;-54
2022/07/17 03:58:37;;;;;;;1.48;1.27;;;;;;;11.73;100.00;101896.81;5049430;28;20029;-58
2022/07/17 04:01:02;;;;;;;1.17;1.02;;;;;;;11.75;100.00;101904.66;5048601;28;20037;-56
2022/07/17 04:03:28;;;;;;;1.52;0.90;;;;;;;11.75;100.00;101902.81;5051569;28;20346;-54
2022/07/17 04:05:53;;;;;;;2.63;0.57;;;;;;;11.78;100.00;101907.78;5060971;28;20028;-57
2022/07/17 04:08:19;;;;;;;1.85;1.35;;;;;;;11.77;100.00;101899.97;5029341;28;21356;-57
2022/07/17 04:10:45;;;;;;;0.77;0.77;;;;;;;11.76;100.00;101903.63;5051992;28;20353;-54
2022/07/17 04:13:10;;;;;;;16.40;1.52;;;;;;;11.70;100.00;101899.81;5048774;28;20025;-56
2022/07/17 04:18:20;;;;;;;1.45;1.25;;;;;;;11.54;100.00;101911.25;5048244;28;20378;-53
2022/07/17 04:20:47;;;;;;;1.13;0.73;;;;;;;11.54;100.00;101908.59;5055249;28;20025;-57
2022/07/17 04:23:13;;;;;;;1.38;0.95;;;;;;;11.56;100.00;101897.78;5059789;28;20040;-57
2022/07/17 04:25:39;;;;;;;0.90;0.75;;;;;;;11.56;100.00;101901.28;5052319;28;20048;-56
2022/07/17 04:28:04;;;;;;;1.83;1.27;;;;;;;11.55;100.00;101907.59;5050550;28;20040;-56
2022/07/17 04:30:29;;;;;;;0.93;0.93;;;;;;;11.56;100.00;101909.25;5048558;28;20037;-56
2022/07/17 04:32:55;;;;;;;2.38;1.35;;;;;;;11.58;100.00;101907.25;5051616;28;20028;-55
2022/07/17 04:35:20;;;;;;;2.90;1.10;;;;;;;11.63;100.00;101906.78;5058632;28;20113;-56
2022/07/17 04:37:45;;;;;;;2.30;0.88;;;;;;;11.68;100.00;101903.63;5050302;28;20361;-54
2022/07/17 04:40:11;;;;;;;0.98;0.93;;;;;;;11.72;100.00;101903.16;5061399;28;20458;-57
2022/07/17 04:42:37;;;;;;;1.27;0.98;;;;;;;11.76;100.00;101898.31;5062476;28;20047;-56
2022/07/17 04:45:03;;;;;;;3.03;1.10;;;;;;;11.77;100.00;101894.66;5060752;28;20375;-54
2022/07/17 04:47:28;;;;;;;2.28;1.00;;;;;;;11.76;100.00;101899.16;5065586;28;20040;-56
2022/07/17 04:49:54;;;;;;;2.30;1.77;;;;;;;11.76;100.00;101898.31;5054008;28;20072;-54
2022/07/17 04:52:19;;;;;;;1.70;0.93;;;;;;;11.80;100.00;101902.31;5058933;28;20045;-56
2022/07/17 04:54:45;;;;;;;1.10;1.00;;;;;;;11.82;100.00;101897.66;5052511;28;20040;-53
2022/07/17 04:57:11;;;;;;;1.15;1.05;;;;;;;11.82;100.00;101902.97;5051524;28;20587;-57
2022/07/17 04:59:37;;;;;;;1.55;0.55;;;;;;;11.84;100.00;101906.31;5060057;28;20025;-55
2022/07/17 05:02:03;;;;;;;0.85;0.80;;;;;;;11.81;100.00;101905.81;5061795;28;20025;-56
2022/07/17 05:04:28;;;;;;;1.38;0.57;;;;;;;11.81;100.00;101911.94;5051081;28;20456;-55
2022/07/17 05:06:54;;;;;;;0.98;0.90;;;;;;;11.81;100.00;101919.09;5049676;28;20197;-52
2022/07/17 05:09:19;;;;;;;1.20;1.10;;;;;;;11.76;100.00;101916.94;5054159;28;20736;-55
2022/07/17 05:11:44;;;;;;;1.23;0.65;;;;;;;11.70;100.00;101915.75;5046182;28;20021;-58
2022/07/17 05:14:10;;;;;;;1.95;0.70;;;;;;;11.64;100.00;101931.50;5057326;28;20132;-58
2022/07/17 05:16:35;;;;;;;1.08;0.88;;;;;;;11.60;100.00;101924.88;5048012;28;20032;-58
2022/07/17 05:19:01;;;;;;;1.10;0.63;;;;;;;11.57;100.00;101926.84;5036031;28;20069;-56
2022/07/17 05:21:26;;;;;;;2.55;1.27;;;;;;;11.60;100.00;101924.88;5061945;28;20081;-54
2022/07/17 05:23:52;;;;;;;3.00;1.20;;;;;;;11.64;100.00;101926.19;5055704;28;20032;-58
2022/07/17 05:26:17;;;;;;;1.00;0.93;;;;;;;11.65;100.00;101923.38;5052443;28;20032;-55
2022/07/17 05:28:42;;;;;;;1.63;0.82;;;;;;;11.66;100.00;101924.22;5054450;28;20409;-58
2022/07/17 05:31:08;;;;;;;2.90;0.77;;;;;;;11.66;100.00;101925.03;5055822;28;20037;-57
2022/07/17 05:33:33;;;;;;;2.55;1.05;;;;;;;11.67;100.00;101915.22;5051430;28;20036;-58
2022/07/17 05:35:59;;;;;;;2.90;0.98;;;;;;;11.73;100.00;101917.25;5052898;28;20393;-58
2022/07/17 05:38:25;;;;;;;0.43;0.43;;;;;;;11.79;100.00;101920.06;5060985;28;20064;-56
2022/07/17 05:40:51;;;;;;;2.42;1.15;;;;;;;11.88;100.00;101917.47;5061713;28;20180;-55
2022/07/17 05:43:16;;;;;;;2.53;1.17;;;;;;;11.95;100.00;101914.00;5040461;28;20461;-55
2022/07/17 05:45:41;;;;;;;1.33;1.23;;;;;;;12.04;100.00;101919.31;5062406;28;20053;-58
2022/07/17 05:48:07;;;;;;;2.72;0.95;;;;;;;12.11;100.00;101923.81;5049147;28;20029;-54
2022/07/17 05:50:34;;;;;;;1.17;0.90;;;;;;;12.20;100.00;101911.34;5061058;28;20548;-57
2022/07/17 05:52:59;;;;;;;0.80;0.80;;;;;;;12.28;100.00;101919.31;5047849;28;20060;-53
2022/07/17 05:55:25;;;;;;;1.13;1.00;;;;;;;12.37;100.00;101923.63;5058905;28;20060;-58
2022/07/17 05:57:50;;;;;;;2.10;1.13;;;;;;;12.47;100.00;101922.59;5058295;28;20028;-58
2022/07/17 06:00:16;;;;;;;2.03;0.90;;;;;;;12.56;100.00;101929.59;5051192;28;20763;-57
2022/07/17 06:02:41;;;;;;;3.80;1.17;;;;;;;12.66;100.00;101923.09;5056152;28;20021;-58
2022/07/17 06:05:08;;;;;;;0.65;0.55;;;;;;;12.76;100.00;101917.59;5051570;28;20033;-58
2022/07/17 06:07:33;;;;;;;2.70;0.90;;;;;;;12.88;100.00;101926.88;5049714;28;20086;-58
2022/07/17 06:09:59;;;;;;;2.70;0.90;;;;;;;13.02;100.00;101921.84;5053950;28;20424;-58
2022/07/17 06:12:24;;;;;;;1.02;0.77;;;;;;;13.15;100.00;101911.47;5052879;28;20037;-56
2022/07/17 06:14:49;;;;;;;2.95;1.35;;;;;;;13.30;100.00;101911.59;5058633;28;20028;-53
2022/07/17 06:17:15;;;;;;;1.35;0.80;;;;;;;13.42;100.00;101904.03;5062336;28;20032;-58
2022/07/17 06:19:41;;;;;;;4.78;1.05;;;;;;;13.48;100.00;101903.34;5061860;28;20026;-58
2022/07/17 06:22:06;;;;;;;0.65;0.65;;;;;;;13.67;100.00;101902.03;5062439;28;20147;-54
2022/07/17 06:24:32;;;;;;;2.22;1.42;;;;;;;13.87;100.00;101905.09;5054588;28;20056;-56
2022/07/17 06:26:57;;;;;;;1.83;0.55;;;;;;;14.06;100.00;101899.25;5052740;28;20107;-54
2022/07/17 06:29:22;;;;;;;0.88;0.88;;;;;;;14.18;100.00;101897.81;5053938;28;20558;-55
2022/07/17 06:31:48;;;;;;;1.88;1.00;;;;;;;14.34;100.00;101891.50;5065078;28;20028;-54
2022/07/17 06:34:13;;;;;;;1.88;0.85;;;;;;;14.43;100.00;101894.94;5053651;28;20080;-58
2022/07/17 06:36:38;;;;;;;1.95;0.95;;;;;;;14.58;100.00;101887.78;5056326;28;20024;-58
2022/07/17 06:39:04;;;;;;;1.38;0.85;;;;;;;14.82;100.00;101889.38;5058303;28;20037;-58
2022/07/17 06:41:29;;;;;;;0.55;0.40;;;;;;;15.04;100.00;101890.25;5036396;28;20031;-58
2022/07/17 06:43:55;;;;;;;1.02;0.77;;;;;;;15.21;100.00;101885.53;5052836;28;20083;-57
2022/07/17 06:46:20;;;;;;;2.55;0.82;;;;;;;15.43;100.00;101881.06;5049280;28;20024;-54
2022/07/17 06:48:45;;;;;;;1.23;0.30;;;;;;;15.64;100.00;101882.94;5064311;28;20043;-58
2022/07/17 06:51:11;;;;;;;2.63;0.20;;;;;;;15.78;100.00;101883.91;5063763;28;20063;-54
2022/07/17 06:53:36;;;;;;;2.05;0.50;;;;;;;15.96;100.00;101885.31;5056325;28;20028;-58
2022/07/17 06:56:02;;;;;;;0.47;0.47;;;;;;;16.15;100.00;101881.97;5048477;28;20029;-49
2022/07/17 06:58:27;;;;;;;2.83;0.25;;;;;;;16.28;100.00;101868.69;5058839;28;20033;-58
2022/07/17 07:00:53;;;;;;;1.17;0.30;;;;;;;16.47;100.00;101880.56;5057081;28;20039;-59
2022/07/17 07:03:19;;;;;;;0.50;0.43;;;;;;;16.62;100.00;101879.63;5056553;28;20048;-58
2022/07/17 07:05:45;;;;;;;1.65;0.55;;;;;;;16.77;100.00;101888.34;5052776;28;20120;-54
2022/07/17 07:08:10;;;;;;;1.05;0.20;;;;;;;16.94;100.00;101883.53;5063728;28;20116;-55
2022/07/17 07:10:35;;;;;;;2.20;0.40;;;;;;;17.16;100.00;101882.38;5055993;28;20024;-57
2022/07/17 07:13:01;;;;;;;3.80;0.57;;;;;;;17.47;100.00;101883.72;5058312;28;20024;-61
2022/07/17 07:15:26;;;;;;;1.67;0.57;;;;;;;17.69;100.00;101876.34;5063456;28;20035;-55
2022/07/17 07:17:52;;;;;;;1.85;0.30;;;;;;;17.92;100.00;101869.78;5042296;28;20078;-59
2022/07/17 07:20:18;;;;;;;1.42;0.47;;;;;;;18.09;100.00;101863.78;5060645;28;20033;-61
2022/07/17 07:22:43;;;;;;;1.45;0.20;;;;;;;18.21;100.00;101868.53;5050774;28;20029;-52
2022/07/17 07:25:09;;;;;;;0.63;0.10;;;;;;;18.31;100.00;101866.25;5060292;28;20039;-61
2022/07/17 07:27:34;;;;;;;4.25;0.40;;;;;;;18.47;100.00;101873.88;5065158;28;20028;-52
2022/07/17 07:30:00;;;;;;;3.28;0.38;;;;;;;18.62;100.00;101872.81;5056986;28;20039;-56
2022/07/17 07:32:26;;;;;;;1.13;0.38;;;;;;;18.76;100.00;101876.31;5042458;28;20021;-52
2022/07/17 07:34:51;;;;;;;1.95;0.28;;;;;;;18.91;100.00;101869.63;5053859;28;20394;-60
2022/07/17 07:37:17;;;;;;;0.45;0.30;;;;;;;19.12;100.00;101860.44;5055303;28;20039;-59
2022/07/17 07:39:43;;;;;;;2.30;0.40;;;;;;;19.30;100.00;101857.03;5056770;28;20032;-57
2022/07/17 07:42:09;;;;;;;4.00;0.45;;;;;;;19.44;100.00;101849.75;5052540;28;20029;-56
2022/07/17 07:44:35;;;;;;;1.30;0.20;;;;;;;19.40;100.00;101857.41;5054842;28;20039;-50
2022/07/17 07:47:01;;;;;;;1.17;0.20;;;;;;;19.33;100.00;101863.84;5052002;28;20063;-55
2022/07/17 07:49:26;;;;;;;0.95;0.38;;;;;;;19.40;100.00;101864.66;5047265;28;20037;-56
2022/07/17 07:51:52;;;;;;;0.43;0.32;;;;;;;19.53;100.00;101861.06;5035743;28;20486;-55
2022/07/17 07:54:17;;;;;;;1.73;0.50;;;;;;;19.65;100.00;101853.94;5056879;28;20488;-55
2022/07/17 07:56:43;;;;;;;0.50;0.50;;;;;;;19.81;100.00;101852.59;5057968;28;20029;-59
2022/07/17 07:59:08;;;;;;;1.65;0.93;;;;;;;19.91;100.00;101849.44;5046488;28;20032;-51
2022/07/17 08:01:34;;;;;;;3.47;1.13;;;;;;;20.02;100.00;101848.69;5039252;28;20052;-58
2022/07/17 08:04:00;;;;;;;1.42;0.55;;;;;;;20.17;100.00;101848.38;5053547;28;20032;-60
2022/07/17 08:06:25;;;;;;;3.22;1.55;;;;;;;20.35;100.00;101842.19;5059790;28;20029;-63
2022/07/17 08:08:51;;;;;;;1.65;0.70;;;;;;;20.49;100.00;101849.06;5052451;28;20096;-61
2022/07/17 08:11:16;;;;;;;0.98;0.28;;;;;;;20.67;100.00;101845.59;5048184;28;20422;-55
2022/07/17 08:13:41;;;;;;;0.35;0.28;;;;;;;20.82;100.00;101847.91;5039680;28;20068;-63
2022/07/17 08:16:07;;;;;;;0.73;0.55;;;;;;;20.98;100.00;101847.28;5053867;28;20114;-60
2022/07/17 08:18:34;;;;;;;3.95;0.43;;;;;;;21.17;100.00;101847.22;5049548;28;20186;-52
2022/07/17 08:20:59;;;;;;;2.08;0.57;;;;;;;21.26;100.00;101840.47;5055778;28;20028;-48
2022/07/17 08:23:25;;;;;;;3.08;0.50;;;;;;;21.42;100.00;101839.03;5052482;28;20599;-58
2022/07/17 08:25:50;;;;;;;0.70;0.43;;;;;;;21.54;100.00;101835.31;5048315;28;20021;-59
2022/07/17 08:28:16;;;;;;;2.60;0.20;;;;;;;21.70;100.00;101833.00;5045987;28;20405;-62
2022/07/17 08:30:41;;;;;;;0.25;0.25;;;;;;;21.91;100.00;101839.69;5038004;28;20453;-55
2022/07/17 08:33:09;;;;;;;1.17;0.30;;;;;;;21.98;100.00;101830.44;5040335;28;20032;-62
2022/07/17 08:35:35;;;;;;;2.50;0.50;;;;;;;22.12;100.00;101827.50;5050809;28;20496;-57
2022/07/17 08:38:01;;;;;;;1.27;0.10;;;;;;;22.23;100.00;101824.00;5054024;28;20055;-58
2022/07/17 08:40:30;;;;;;;0.25;0.10;;;;;;;22.33;100.00;101823.41;5052807;28;20426;-56
2022/07/17 08:42:58;;;;;;;2.53;0.20;;;;;;;22.52;100.00;101829.50;5047145;28;20017;-54
2022/07/17 08:45:25;;;;;;;2.85;0.40;;;;;;;22.76;100.00;101825.66;5032477;28;20035;-55
2022/07/17 08:47:52;;;;;;;0.75;0.20;;;;;;;22.90;100.00;101819.97;5050228;28;20060;-58
2022/07/17 08:50:23;;;;;;;2.95;0.30;;;;;;;23.06;100.00;101824.66;5050749;28;20033;-61
2022/07/17 08:52:48;;;;;;;1.48;0.40;;;;;;;23.22;100.00;101823.84;5056773;28;20119;-65
2022/07/17 08:55:14;;;;;;;1.63;0.38;;;;;;;23.24;100.00;101812.81;5051122;28;20491;-50
2022/07/17 08:57:41;;;;;;;0.60;0.28;;;;;;;23.34;100.00;101820.25;5050540;28;20021;-59
2022/07/17 09:00:10;;;;;;;0.85;0.20;;;;;;;23.48;100.00;101816.19;5056460;28;20052;-62
2022/07/17 09:02:38;;;;;;;3.30;0.30;;;;;;;23.70;100.00;101808.97;5052256;28;20028;-60
2022/07/17 09:05:05;;;;;;;6.57;0.17;;;;;;;23.97;100.00;101812.94;5051780;28;20371;-56
2022/07/17 09:07:31;;;;;;;0.63;0.30;;;;;;;24.10;100.00;101802.56;5055258;28;20546;-61
2022/07/17 09:09:57;;;;;;;1.98;0.25;;;;;;;24.19;100.00;101808.38;5058808;28;20048;-59
2022/07/17 09:12:29;;;;;;;1.17;0.25;;;;;;;24.26;100.00;101808.19;5056981;28;20037;-61
2022/07/17 09:14:56;;;;;;;4.82;0.40;;;;;;;24.44;100.00;101805.16;5055804;28;20458;-61
2022/07/17 09:17:24;;;;;;;1.00;0.40;;;;;;;24.48;100.00;101803.63;5054782;28;20118;-52
2022/07/17 09:19:50;;;;;;;0.77;0.65;;;;;;;24.59;100.00;101802.69;5048547;28;20423;-61
2022/07/17 09:22:18;;;;;;;5.38;0.63;;;;;;;24.65;90.21;101800.84;5046818;28;20473;-46
2022/07/17 09:24:48;;;;;;;2.95;0.60;;;;;;;24.63;94.53;101799.44;5047141;28;20093;-46
2022/07/17 09:27:27;;;;;;;4.18;0.57;;;;;;;24.75;89.74;101792.00;5045320;28;20072;-45
2022/07/17 09:30:07;;;;;;;2.67;0.77;;;;;;;24.92;87.86;101803.59;5038188;28;20065;-53
2022/07/17 09:32:39;;;;;;;2.80;0.57;;;;;;;24.97;88.89;101790.09;5046515;28;20044;-46
2022/07/17 09:35:07;;;;;;;3.50;0.95;;;;;;;24.98;88.10;101789.00;5052777;28;20396;-53
2022/07/17 09:37:33;;;;;;;1.38;0.47;;;;;;;25.19;90.42;101783.81;5049625;28;20558;-47
2022/07/17 09:39:59;;;;;;;12.75;1.85;;;;;;;25.35;86.65;101782.03;5055332;28;20036;-47
2022/07/17 09:42:32;;;;;;;3.25;0.40;;;;;;;25.29;87.71;101789.31;5052814;28;20090;-59
2022/07/17 09:45:01;;;;;;;1.60;0.52;;;;;;;25.33;84.98;101782.31;5048271;28;20033;-53
2022/07/17 09:47:28;;;;;;;2.15;1.20;;;;;;;25.42;88.29;101785.34;5054283;28;20339;-56
2022/07/17 09:49:55;;;;;;;11.18;1.00;;;;;;;25.53;85.88;101786.25;5060174;28;20029;-62
2022/07/17 09:52:26;;;;;;;2.45;0.70;;;;;;;25.66;85.41;101789.38;5049091;28;20029;-47
2022/07/17 09:54:54;;;;;;;3.03;0.30;;;;;;;25.74;83.88;101785.34;5045922;28;20032;-62
2022/07/17 09:57:24;;;;;;;0.82;0.55;;;;;;;25.69;79.49;101788.03;5049515;28;20115;-53
2022/07/17 09:59:50;;;;;;;0.67;0.67;;;;;;;25.69;82.88;101782.59;5049697;28;20036;-59
2022/07/17 10:02:16;;;;;;;1.80;0.45;;;;;;;25.87;80.66;101784.91;5049164;28;20281;-63
2022/07/17 10:04:42;;;;;;;0.75;0.52;;;;;;;25.84;80.44;101788.16;5046732;28;20032;-64
2022/07/17 10:07:08;;;;;;;0.38;0.32;;;;;;;25.88;78.82;101783.00;5046734;28;20089;-51
2022/07/17 10:09:34;;;;;;;2.17;0.70;;;;;;;25.95;77.40;101785.50;5045989;28;20033;-47
2022/07/17 10:12:01;;;;;;;2.42;0.75;;;;;;;26.10;75.38;101782.88;5052723;28;20489;-62
2022/07/17 10:14:27;;;;;;;1.80;0.85;;;;;;;26.19;76.04;101784.00;5046160;28;20047;-47
2022/07/17 10:16:52;;;;;;;0.40;0.40;;;;;;;26.42;74.85;101781.94;5049984;28;20741;-47
2022/07/17 10:19:22;;;;;;;0.95;0.50;;;;;;;26.58;73.98;101775.47;5049363;28;20091;-48
2022/07/17 10:22:00;;;;;;;0.50;0.38;;;;;;;26.48;72.52;101773.50;5055154;28;20035;-57
2022/07/17 10:24:27;;;;;;;2.13;0.25;;;;;;;26.61;72.99;101765.97;5044050;28;20055;-52
2022/07/17 10:26:52;;;;;;;1.08;0.28;;;;;;;26.82;73.46;101767.63;5042435;28;20040;-47
2022/07/17 10:29:36;;;;;;;0.30;0.20;;;;;;;26.95;67.92;101760.84;5044288;28;20511;-45
2022/07/17 10:32:14;;;;;;;3.20;0.30;;;;;;;27.01;68.71;101756.25;5029142;28;20029;-55
2022/07/17 10:34:42;;;;;;;1.40;0.40;;;;;;;27.18;69.28;101752.22;5048674;28;20544;-48
2022/07/17 10:37:47;;;;;;;2.53;1.13;;;;;;;27.36;68.48;101750.03;5052939;28;20498;-49
2022/07/17 10:40:23;;;;;;;3.70;0.38;;;;;;;27.41;63.10;101739.94;5045310;28;20049;-46
2022/07/17 10:43:18;;;;;;;2.17;0.45;;;;;;;27.45;64.54;101753.84;5044925;28;20620;-53
2022/07/17 10:45:45;;;;;;;1.10;0.50;;;;;;;27.52;66.79;101740.75;5048676;28;20047;-63
2022/07/17 10:48:22;;;;;;;0.68;0.50;;;;;;;27.86;65.52;101745.63;5055702;28;20363;-56
2022/07/17 10:50:56;;;;;;;0.63;0.35;;;;;;;28.09;64.83;101740.63;5053905;28;20481;-55
2022/07/17 10:53:25;;;;;;;0.95;0.50;;;;;;;28.12;63.09;101729.19;5047297;28;20033;-51
2022/07/17 10:55:56;;;;;;;0.60;0.32;;;;;;;28.13;62.67;101737.06;5050207;28;20063;-47
2022/07/17 10:58:21;;;;;;;1.48;0.22;;;;;;;28.15;62.13;101729.44;5051952;28;20036;-56
2022/07/17 11:01:03;;;;;;;2.47;0.60;;;;;;;28.25;58.77;101726.66;5028625;28;20033;-44
2022/07/17 11:03:30;;;;;;;1.83;0.55;;;;;;;28.37;61.77;101728.22;5028776;28;20431;-46
2022/07/17 11:06:07;;;;;;;1.05;0.40;;;;;;;28.58;61.13;101718.03;5048420;28;20028;-63
2022/07/17 11:08:36;;;;;;;2.28;0.20;;;;;;;28.62;59.43;101716.41;5030361;28;20404;-54
2022/07/17 11:11:01;;;;;;;2.88;0.50;;;;;;;28.52;58.38;101714.53;5044550;28;20103;-58
2022/07/17 11:13:27;;;;;;;5.53;0.50;;;;;;;28.48;58.56;101718.94;5042455;28;20032;-53
2022/07/17 11:15:52;;;;;;;0.77;0.65;;;;;;;28.45;56.05;101714.06;5053394;28;20362;-47
2022/07/17 11:18:20;;;;;;;1.95;0.45;;;;;;;28.45;57.00;101714.06;5048967;28;20404;-52